Aviation Digital Data Service (ADDS)

Output produced by METARs form (0758 UTC 20 March 2019)
found at http://www.aviationweather.gov/metar/data/
 
Forecast for: HLLM (MITIGA , LY)
Text: TAF HLLM 200500Z 2006/2106 35010KT 8000 SCT025 BKN070
Forecast period: 0600 to 1200 UTC 20 March 2019
Forecast type: FROM: standard forecast or significant change
Winds: from the N (350 degrees) at 12 MPH (10 knots; 5.1 m/s)
Visibility: 5 miles (8 km)
Ceiling: 7000 feet AGL
Clouds: scattered clouds at 2500 feet AGL
broken clouds at 7000 feet AGL
Weather: no significant weather forecast for this period
Text: PROB30
Forecast period: 0600 UTC 20 March 2019 to 0600 UTC 21 March 2019
Forecast type: TEMPORARY: The following changes expected for less than half the time period
Visibility: 3 miles (5 km)
Ceiling: 2300 feet AGL
Clouds: broken clouds at 2300 feet AGL
broken clouds at 7000 feet AGL
Weather: SHRA  (rain showers)
Text: TEMPO 2006/2106 5000 SHRA BKN023 BKN070
Forecast period: 1200 UTC 20 March 2019 to 0600 UTC 21 March 2019
Forecast type: BECOMING: Conditions expected to become as follows by 1400 UTC 20 March 2019
Winds: from the W (270 degrees) at 14 MPH (12 knots; 6.2 m/s)
Visibility: 5 miles (8 km)
Ceiling: 7000 feet AGL
Clouds: scattered clouds at 2500 feet AGL
broken clouds at 7000 feet AGL
Weather: no significant weather forecast for this period